createdAt,value
2019-01-24T00:00:26.331Z,25.53
2019-01-24T00:02:55.243Z,24.27
2019-01-24T00:05:23.848Z,27.03
2019-01-24T00:07:52.758Z,26.83
2019-01-24T00:10:21.422Z,26.17
2019-01-24T00:12:49.930Z,27.37
2019-01-24T00:15:18.606Z,26.37
2019-01-24T00:17:47.182Z,26.83
2019-01-24T00:20:16.722Z,27.10
2019-01-24T00:22:45.402Z,26.60
2019-01-24T00:25:14.170Z,26.73
2019-01-24T00:27:42.742Z,27.80
2019-01-24T00:30:13.994Z,27.07
2019-01-24T00:32:43.672Z,27.37
2019-01-24T00:35:12.723Z,28.20
2019-01-24T00:37:41.426Z,29.23
2019-01-24T00:40:18.509Z,28.90
2019-01-24T00:42:47.216Z,27.17
2019-01-24T00:45:16.554Z,26.60
2019-01-24T00:47:45.198Z,26.93
2019-01-24T00:50:15.640Z,28.03
2019-01-24T00:52:44.482Z,27.10
2019-01-24T00:55:16.490Z,26.37
2019-01-24T00:57:45.230Z,27.13
2019-01-24T01:00:19.849Z,26.70
2019-01-24T01:02:48.552Z,25.87
2019-01-24T01:05:17.411Z,26.83
2019-01-24T01:07:46.330Z,24.97
2019-01-24T01:10:15.477Z,26.20
2019-01-24T01:12:44.217Z,26.53
2019-01-24T01:15:16.023Z,26.13
2019-01-24T01:17:45.035Z,26.33
2019-01-24T01:20:16.478Z,25.17
2019-01-24T01:22:45.124Z,24.90
2019-01-24T01:25:14.354Z,25.77
2019-01-24T01:27:43.266Z,27.50
2019-01-24T01:30:17.524Z,27.07
2019-01-24T01:32:46.431Z,27.60
2019-01-24T01:35:15.173Z,27.20
2019-01-24T01:37:43.742Z,28.00
2019-01-24T01:40:15.186Z,28.03
2019-01-24T01:42:43.826Z,26.50
2019-01-24T01:45:18.298Z,28.23
2019-01-24T01:47:47.122Z,29.27
2019-01-24T01:50:18.743Z,28.30
2019-01-24T01:52:47.392Z,27.70
2019-01-24T01:55:16.124Z,28.13
2019-01-24T01:57:44.842Z,29.67
2019-01-24T02:00:18.522Z,29.60
2019-01-24T02:02:47.114Z,27.83
2019-01-24T02:05:16.236Z,28.30
2019-01-24T02:07:44.909Z,28.23
2019-01-24T02:10:18.854Z,27.73
2019-01-24T02:12:47.792Z,28.30
2019-01-24T02:15:17.298Z,28.27
2019-01-24T02:17:46.242Z,28.97
2019-01-24T02:20:23.183Z,29.17
2019-01-24T02:22:52.530Z,28.67
2019-01-24T02:25:21.574Z,28.57
2019-01-24T02:27:50.358Z,27.83
2019-01-24T02:30:22.072Z,29.43
2019-01-24T02:32:51.013Z,29.27
2019-01-24T02:35:19.820Z,29.63
2019-01-24T02:37:48.491Z,28.90
2019-01-24T02:40:17.268Z,29.83
2019-01-24T02:42:46.006Z,29.07
2019-01-24T02:45:17.712Z,29.07
2019-01-24T02:47:46.559Z,29.17
2019-01-24T02:50:17.586Z,28.77
2019-01-24T02:52:46.269Z,30.43
2019-01-24T02:55:16.287Z,29.03
2019-01-24T02:57:44.969Z,29.93
2019-01-24T03:00:16.375Z,28.90
2019-01-24T03:02:45.219Z,28.70
2019-01-24T03:05:16.695Z,30.80
2019-01-24T03:07:45.367Z,28.23
2019-01-24T03:10:15.089Z,30.60
2019-01-24T03:12:43.774Z,28.57
2019-01-24T03:15:17.266Z,30.03
2019-01-24T03:17:46.134Z,29.50
2019-01-24T03:20:16.634Z,29.10
2019-01-24T03:22:45.600Z,29.67
2019-01-24T03:25:16.412Z,29.77
2019-01-24T03:27:45.185Z,29.50
2019-01-24T03:30:18.815Z,29.93
2019-01-24T03:32:47.531Z,30.03
2019-01-24T03:35:21.525Z,30.10
2019-01-24T03:37:50.199Z,30.43
2019-01-24T03:40:18.835Z,29.50
2019-01-24T03:42:47.502Z,29.13
2019-01-24T03:45:17.528Z,29.47
2019-01-24T03:47:46.574Z,29.10
2019-01-24T03:50:17.154Z,29.83
2019-01-24T03:52:45.819Z,29.03
2019-01-24T03:55:16.927Z,28.67
2019-01-24T03:57:45.598Z,28.33
2019-01-24T04:00:19.483Z,28.27
2019-01-24T04:02:48.532Z,27.93
2019-01-24T04:05:17.653Z,27.77
2019-01-24T04:07:46.479Z,28.90
2019-01-24T04:10:17.673Z,29.57
2019-01-24T04:12:46.507Z,27.43
2019-01-24T04:15:20.676Z,28.93
2019-01-24T04:17:49.382Z,28.73
2019-01-24T04:20:18.335Z,30.03
2019-01-24T04:22:46.978Z,28.37
2019-01-24T04:25:15.744Z,30.03
2019-01-24T04:27:44.526Z,29.90
2019-01-24T04:30:18.509Z,31.27
2019-01-24T04:32:47.075Z,30.57
2019-01-24T04:35:20.028Z,30.03
2019-01-24T04:37:46.542Z,30.30
2019-01-24T04:40:19.430Z,28.97
2019-01-24T04:42:48.355Z,29.07
2019-01-24T04:45:18.398Z,29.33
2019-01-24T04:47:47.144Z,29.63
2019-01-24T04:50:17.495Z,31.30
2019-01-24T04:52:46.535Z,30.83
2019-01-24T04:55:17.400Z,30.03
2019-01-24T04:57:46.349Z,30.90
2019-01-24T05:00:18.072Z,31.97
2019-01-24T05:02:46.719Z,32.03
2019-01-24T05:05:15.322Z,31.50
2019-01-24T05:07:44.062Z,30.17
2019-01-24T05:10:12.996Z,31.33
2019-01-24T05:12:41.634Z,30.93
2019-01-24T05:15:10.592Z,31.00
2019-01-24T05:17:39.226Z,30.83
2019-01-24T05:20:11.134Z,30.40
2019-01-24T05:22:39.714Z,30.57
2019-01-24T05:25:13.442Z,31.77
2019-01-24T05:27:42.010Z,30.40
2019-01-24T05:30:17.174Z,28.70
2019-01-24T05:32:45.746Z,30.00
2019-01-24T05:35:14.587Z,29.80
2019-01-24T05:37:43.160Z,29.23
2019-01-24T05:40:11.998Z,30.93
2019-01-24T05:42:40.643Z,29.63
2019-01-24T05:45:12.024Z,30.43
2019-01-24T05:47:40.626Z,30.07
2019-01-24T05:50:13.466Z,30.07
2019-01-24T05:52:42.222Z,30.07
2019-01-24T05:55:12.630Z,31.10
2019-01-24T05:57:41.302Z,31.27
2019-01-24T06:00:17.294Z,31.93
2019-01-24T06:02:45.972Z,29.80
2019-01-24T06:05:15.492Z,30.93
2019-01-24T06:07:44.162Z,30.97
2019-01-24T06:10:15.333Z,32.10
2019-01-24T06:12:43.934Z,32.80
2019-01-24T06:15:15.410Z,32.40
2019-01-24T06:17:44.090Z,30.77
2019-01-24T06:20:13.398Z,31.33
2019-01-24T06:22:42.187Z,31.30
2019-01-24T06:25:12.604Z,31.10
2019-01-24T06:27:41.208Z,30.60
2019-01-24T06:30:18.047Z,30.97
2019-01-24T06:32:46.823Z,30.63
2019-01-24T06:35:15.670Z,32.77
2019-01-24T06:37:44.675Z,34.50
2019-01-24T06:40:17.027Z,33.63
2019-01-24T06:42:45.592Z,33.80
2019-01-24T06:45:16.939Z,33.77
2019-01-24T06:47:45.667Z,33.73
2019-01-24T06:50:16.199Z,32.50
2019-01-24T06:52:44.772Z,33.77
2019-01-24T06:55:19.261Z,32.33
2019-01-24T06:57:47.830Z,32.83
2019-01-24T07:00:20.423Z,30.83
2019-01-24T07:02:49.161Z,30.77
2019-01-24T07:05:17.766Z,30.90
2019-01-24T07:07:46.274Z,31.37
2019-01-24T07:10:17.387Z,29.70
2019-01-24T07:12:45.959Z,30.80
2019-01-24T07:15:17.267Z,30.77
2019-01-24T07:17:45.913Z,31.27
2019-01-24T07:20:16.683Z,32.60
2019-01-24T07:22:45.358Z,31.60
2019-01-24T07:25:22.725Z,32.77
2019-01-24T07:27:51.603Z,30.70
2019-01-24T07:30:21.063Z,32.83
2019-01-24T07:32:49.798Z,31.77
2019-01-24T07:35:19.545Z,29.83
2019-01-24T07:37:48.194Z,31.30
2019-01-24T07:40:19.203Z,29.87
2019-01-24T07:42:48.315Z,30.83
2019-01-24T07:45:26.199Z,29.97
2019-01-24T07:47:54.782Z,31.03
2019-01-24T07:50:23.393Z,31.40
2019-01-24T07:52:51.958Z,30.53
2019-01-24T07:55:20.628Z,31.10
2019-01-24T07:57:49.267Z,31.03
2019-01-24T08:00:20.825Z,30.80
2019-01-24T08:02:49.476Z,31.63
2019-01-24T08:05:18.493Z,31.63
2019-01-24T08:07:47.103Z,32.07
2019-01-24T08:10:18.393Z,31.87
2019-01-24T08:12:47.539Z,32.27
2019-01-24T08:15:20.820Z,30.37
2019-01-24T08:17:50.273Z,32.60
2019-01-24T08:20:20.882Z,32.47
2019-01-24T08:22:49.626Z,31.83
2019-01-24T08:25:18.474Z,30.77
2019-01-24T08:27:47.147Z,30.63
2019-01-24T08:30:26.810Z,31.57
2019-01-24T08:32:55.667Z,30.53
2019-01-24T08:35:24.413Z,29.70
2019-01-24T08:37:53.148Z,29.07
2019-01-24T08:40:23.059Z,27.93
2019-01-24T08:42:52.009Z,27.23
2019-01-24T08:45:20.808Z,27.90
2019-01-24T08:47:49.579Z,27.43
2019-01-24T08:50:22.872Z,28.10
2019-01-24T08:52:51.542Z,27.40
2019-01-24T08:55:29.217Z,26.60
2019-01-24T08:57:58.147Z,26.83
2019-01-24T09:00:27.066Z,25.10
2019-01-24T09:02:55.770Z,26.40
2019-01-24T09:05:24.675Z,25.83
2019-01-24T09:08:14.139Z,27.07
2019-01-24T09:10:42.888Z,26.00
2019-01-24T09:13:11.463Z,26.90
2019-01-24T09:15:40.108Z,27.33
2019-01-24T09:18:09.043Z,27.70
2019-01-24T09:20:37.783Z,27.40
2019-01-24T09:23:07.031Z,26.50
2019-01-24T09:25:35.667Z,26.03
2019-01-24T09:28:04.403Z,27.47
2019-01-24T09:30:33.130Z,26.50
2019-01-24T09:33:01.698Z,22.90
2019-01-24T09:35:30.359Z,22.53
2019-01-24T09:37:58.923Z,22.90
2019-01-24T09:40:27.601Z,19.93
2019-01-24T09:42:56.339Z,20.70
2019-01-24T09:45:26.875Z,20.77
2019-01-24T09:47:57.175Z,18.77
2019-01-24T09:50:27.011Z,17.30
2019-01-24T09:52:55.590Z,16.80
2019-01-24T09:55:24.266Z,16.97
2019-01-24T09:57:53.155Z,17.23
2019-01-24T10:00:24.483Z,17.47
2019-01-24T10:02:53.163Z,18.00
2019-01-24T10:05:22.003Z,16.80
2019-01-24T10:07:50.575Z,18.03
2019-01-24T10:10:21.575Z,18.20
2019-01-24T10:12:50.573Z,17.73
2019-01-24T10:15:20.207Z,17.23
2019-01-24T10:17:48.907Z,17.43
2019-01-24T10:20:22.998Z,17.17
2019-01-24T10:22:51.691Z,17.37
2019-01-24T10:25:23.039Z,18.50
2019-01-24T10:27:51.764Z,18.07
2019-01-24T10:30:25.174Z,18.17
2019-01-24T10:32:53.807Z,18.87
2019-01-24T10:35:22.571Z,18.70
2019-01-24T10:37:51.135Z,17.43
2019-01-24T10:40:22.080Z,17.10
2019-01-24T10:42:50.711Z,18.00
2019-01-24T10:45:20.819Z,19.00
2019-01-24T10:47:50.849Z,18.43
2019-01-24T10:50:21.859Z,17.80
2019-01-24T10:52:50.520Z,18.07
2019-01-24T10:55:38.540Z,18.07
2019-01-24T10:58:07.245Z,17.47
2019-01-24T11:00:38.241Z,18.90
2019-01-24T11:03:09.289Z,18.63
2019-01-24T11:05:37.997Z,19.70
2019-01-24T11:08:06.727Z,18.10
2019-01-24T11:10:35.307Z,18.27
2019-01-24T11:13:04.359Z,17.67
2019-01-24T11:15:32.993Z,17.53
2019-01-24T11:18:01.656Z,18.50
2019-01-24T11:20:30.228Z,19.47
2019-01-24T11:22:58.917Z,18.77
2019-01-24T11:25:28.013Z,18.53
2019-01-24T11:27:56.677Z,17.97
2019-01-24T11:30:29.759Z,17.57
2019-01-24T11:32:58.900Z,19.83
2019-01-24T11:35:30.380Z,18.80
2019-01-24T11:37:59.251Z,18.17
2019-01-24T11:40:28.155Z,18.47
2019-01-24T11:42:56.889Z,19.10
2019-01-24T11:45:28.190Z,19.73
2019-01-24T11:47:56.799Z,18.43
2019-01-24T11:50:25.369Z,17.30
2019-01-24T11:52:53.897Z,18.20
2019-01-24T11:55:22.527Z,18.67
2019-01-24T11:57:51.260Z,18.23
2019-01-24T12:00:26.975Z,19.53
2019-01-24T12:02:55.704Z,18.97
2019-01-24T12:05:24.268Z,18.23
2019-01-24T12:07:53.107Z,18.27
2019-01-24T12:10:26.764Z,19.80
2019-01-24T12:12:55.347Z,18.03
2019-01-24T12:15:28.727Z,19.27
2019-01-24T12:17:57.332Z,20.73
2019-01-24T12:20:26.528Z,19.13
2019-01-24T12:22:55.339Z,19.90
2019-01-24T12:25:24.051Z,19.40
2019-01-24T12:27:52.688Z,18.87
2019-01-24T12:30:24.071Z,18.60
2019-01-24T12:32:52.811Z,18.03
2019-01-24T12:35:21.547Z,18.43
2019-01-24T12:37:50.248Z,19.23
2019-01-24T12:40:18.917Z,17.10
2019-01-24T12:42:47.772Z,17.03
2019-01-24T12:45:31.158Z,18.07
2019-01-24T12:47:59.751Z,18.63
2019-01-24T12:50:28.416Z,17.07
2019-01-24T12:52:56.979Z,17.37
2019-01-24T12:55:25.733Z,17.10
2019-01-24T12:57:54.563Z,17.23
2019-01-24T13:00:28.680Z,18.00
2019-01-24T13:02:57.239Z,17.57
2019-01-24T13:05:26.765Z,17.43
2019-01-24T13:07:55.472Z,16.67
2019-01-24T13:10:26.905Z,16.57
2019-01-24T13:12:55.637Z,16.50
2019-01-24T13:15:27.161Z,17.57
2019-01-24T13:17:55.885Z,17.80
2019-01-24T13:20:24.539Z,17.17
2019-01-24T13:22:53.111Z,17.77
2019-01-24T13:25:24.512Z,18.23
2019-01-24T13:27:53.210Z,17.63
2019-01-24T13:30:30.217Z,17.70
2019-01-24T13:32:58.843Z,17.87
2019-01-24T13:35:27.594Z,17.60
2019-01-24T13:37:56.294Z,18.17
2019-01-24T13:40:27.327Z,17.73
2019-01-24T13:42:57.331Z,18.13
2019-01-24T13:45:34.185Z,16.60
2019-01-24T13:48:02.848Z,17.47
2019-01-24T13:50:31.511Z,17.47
2019-01-24T13:53:00.138Z,17.40
2019-01-24T13:55:28.800Z,18.23
2019-01-24T13:57:57.503Z,18.50
2019-01-24T14:00:28.640Z,16.67
2019-01-24T14:03:09.715Z,17.47
2019-01-24T14:05:38.382Z,17.67
2019-01-24T14:08:07.011Z,18.00
2019-01-24T14:10:35.672Z,18.00
2019-01-24T14:13:04.475Z,17.73
2019-01-24T14:15:33.070Z,16.40
2019-01-24T14:18:01.705Z,17.17
2019-01-24T14:20:30.332Z,18.00
2019-01-24T14:22:59.007Z,19.00
2019-01-24T14:25:27.559Z,18.27
2019-01-24T14:27:56.171Z,19.17
2019-01-24T14:30:28.923Z,18.37
2019-01-24T14:32:57.594Z,17.83
2019-01-24T14:35:26.193Z,18.90
2019-01-24T14:37:54.814Z,19.13
2019-01-24T14:40:23.543Z,19.33
2019-01-24T14:42:52.215Z,18.57
2019-01-24T14:45:27.287Z,17.53
2019-01-24T14:47:55.993Z,17.10
2019-01-24T14:50:27.627Z,17.33
2019-01-24T14:52:56.449Z,17.40
2019-01-24T14:55:25.146Z,18.00
2019-01-24T14:57:54.024Z,18.03
2019-01-24T15:00:31.517Z,18.60
2019-01-24T15:03:00.858Z,17.83
2019-01-24T15:05:29.564Z,17.67
2019-01-24T15:07:58.388Z,18.43
2019-01-24T15:10:27.289Z,19.03
2019-01-24T15:12:56.238Z,19.43
2019-01-24T15:15:25.342Z,18.37
2019-01-24T15:17:53.970Z,18.63
2019-01-24T15:20:22.639Z,20.40
2019-01-24T15:22:51.207Z,18.93
2019-01-24T15:25:24.027Z,19.17
2019-01-24T15:27:52.583Z,18.53
2019-01-24T15:30:27.213Z,19.27
2019-01-24T15:32:55.879Z,19.33
2019-01-24T15:35:24.603Z,19.73
2019-01-24T15:37:54.611Z,18.63
2019-01-24T15:40:26.340Z,18.87
2019-01-24T15:42:55.019Z,19.10
2019-01-24T15:45:23.650Z,18.50
2019-01-24T15:47:52.425Z,19.20
2019-01-24T15:50:22.620Z,17.63
2019-01-24T15:52:51.444Z,19.20
2019-01-24T15:55:20.083Z,19.63
2019-01-24T15:57:48.779Z,19.27
2019-01-24T16:00:23.639Z,18.87
2019-01-24T16:02:52.443Z,18.07
2019-01-24T16:05:40.448Z,18.27
2019-01-24T16:08:09.090Z,18.33
2019-01-24T16:10:37.681Z,18.47
2019-01-24T16:13:06.377Z,17.57
2019-01-24T16:15:36.636Z,18.07
2019-01-24T16:18:07.431Z,17.60
2019-01-24T16:20:36.131Z,18.17
2019-01-24T16:23:05.269Z,16.40
2019-01-24T16:25:34.874Z,16.87
2019-01-24T16:28:03.549Z,17.37
2019-01-24T16:30:34.618Z,17.37
2019-01-24T16:33:06.999Z,16.60
2019-01-24T16:35:35.408Z,16.37
2019-01-24T16:38:09.242Z,17.50
2019-01-24T16:40:34.655Z,17.17
2019-01-24T16:43:03.495Z,17.07
2019-01-24T16:45:32.128Z,16.33
2019-01-24T16:48:00.690Z,17.27
2019-01-24T16:50:29.509Z,17.23
2019-01-24T16:52:58.145Z,17.27
2019-01-24T16:55:26.808Z,17.73
2019-01-24T16:57:55.515Z,17.87
2019-01-24T17:00:29.863Z,17.07
2019-01-24T17:02:58.505Z,18.27
2019-01-24T17:05:27.173Z,17.63
2019-01-24T17:07:57.132Z,17.67
2019-01-24T17:10:27.643Z,17.00
2019-01-24T17:12:56.467Z,17.23
2019-01-24T17:15:25.505Z,16.73
2019-01-24T17:17:54.233Z,17.40
2019-01-24T17:20:29.964Z,17.10
2019-01-24T17:22:58.673Z,17.77
2019-01-24T17:25:32.162Z,17.83
2019-01-24T17:28:00.800Z,17.50
2019-01-24T17:30:35.000Z,17.63
2019-01-24T17:33:04.706Z,18.20
2019-01-24T17:35:33.340Z,17.77
2019-01-24T17:38:02.082Z,17.67
2019-01-24T17:40:32.416Z,17.80
2019-01-24T17:43:01.057Z,19.20
2019-01-24T17:45:31.935Z,17.23
2019-01-24T17:48:00.908Z,18.30
2019-01-24T17:50:29.546Z,17.93
2019-01-24T17:52:58.308Z,18.47
2019-01-24T17:55:29.785Z,17.20
2019-01-24T17:57:58.374Z,18.40
2019-01-24T18:00:28.724Z,18.23
2019-01-24T18:02:57.314Z,18.87
2019-01-24T18:05:25.952Z,18.60
2019-01-24T18:07:54.536Z,17.63
2019-01-24T18:10:27.594Z,18.67
2019-01-24T18:12:56.200Z,18.33
2019-01-24T18:15:32.328Z,18.50
2019-01-24T18:18:01.174Z,18.83
2019-01-24T18:20:32.069Z,18.73
2019-01-24T18:23:01.112Z,18.13
2019-01-24T18:25:30.026Z,19.50
2019-01-24T18:27:58.688Z,19.27
2019-01-24T18:30:29.089Z,19.50
2019-01-24T18:32:58.016Z,20.23
2019-01-24T18:35:27.014Z,18.90
2019-01-24T18:37:55.754Z,19.63
2019-01-24T18:40:30.154Z,18.80
2019-01-24T18:42:59.794Z,18.90
2019-01-24T18:45:40.346Z,20.10
2019-01-24T18:48:09.083Z,20.43
2019-01-24T18:50:37.649Z,20.03
2019-01-24T18:53:06.450Z,18.97
2019-01-24T18:55:35.052Z,19.50
2019-01-24T18:58:03.951Z,21.13
2019-01-24T19:00:34.423Z,20.00
2019-01-24T19:03:03.230Z,20.23
2019-01-24T19:05:31.899Z,20.37
2019-01-24T19:08:00.526Z,20.30
2019-01-24T19:10:29.126Z,21.50
2019-01-24T19:12:57.694Z,21.30
2019-01-24T19:15:26.304Z,20.70
2019-01-24T19:17:55.007Z,20.40
2019-01-24T19:20:23.597Z,20.93
2019-01-24T19:22:52.234Z,21.20
2019-01-24T19:25:21.968Z,19.87
2019-01-24T19:27:50.982Z,20.70
2019-01-24T19:30:21.910Z,20.80
2019-01-24T19:32:50.717Z,21.87
2019-01-24T19:35:19.546Z,21.23
2019-01-24T19:37:48.364Z,20.50
2019-01-24T19:40:22.126Z,22.43
2019-01-24T19:42:50.754Z,21.67
2019-01-24T19:45:21.387Z,20.80
2019-01-24T19:47:50.022Z,18.80
2019-01-24T19:50:21.058Z,19.87
2019-01-24T19:52:49.971Z,20.10
2019-01-24T19:55:18.650Z,20.67
2019-01-24T19:57:47.213Z,20.37
2019-01-24T20:00:27.629Z,19.60
2019-01-24T20:02:56.431Z,20.37
2019-01-24T20:05:25.290Z,20.70
2019-01-24T20:07:53.982Z,20.67
2019-01-24T20:10:24.612Z,20.53
2019-01-24T20:12:53.299Z,20.23
2019-01-24T20:15:23.935Z,22.00
2019-01-24T20:17:52.672Z,21.00
2019-01-24T20:20:21.432Z,20.83
2019-01-24T20:22:50.903Z,20.30
2019-01-24T20:25:27.523Z,21.77
2019-01-24T20:27:56.301Z,20.47
2019-01-24T20:30:27.313Z,19.40
2019-01-24T20:32:56.287Z,20.63
2019-01-24T20:35:33.736Z,20.17
2019-01-24T20:38:02.503Z,20.20
2019-01-24T20:40:31.178Z,20.57
2019-01-24T20:42:59.968Z,20.63
2019-01-24T20:45:29.449Z,20.47
2019-01-24T20:47:58.526Z,21.47
2019-01-24T20:50:27.123Z,19.70
2019-01-24T20:52:55.769Z,20.10
2019-01-24T20:55:24.357Z,20.17
2019-01-24T20:57:53.152Z,20.37
2019-01-24T21:00:25.457Z,20.77
2019-01-24T21:02:54.833Z,20.77
2019-01-24T21:05:24.666Z,20.40
2019-01-24T21:07:53.501Z,20.00
2019-01-24T21:10:24.467Z,20.93
2019-01-24T21:12:53.055Z,20.73
2019-01-24T21:15:22.977Z,20.63
2019-01-24T21:17:51.639Z,20.57
2019-01-24T21:20:25.103Z,21.00
2019-01-24T21:22:53.679Z,20.70
2019-01-24T21:25:23.848Z,20.93
2019-01-24T21:27:52.443Z,21.00
2019-01-24T21:30:24.100Z,20.67
2019-01-24T21:32:52.754Z,19.93
2019-01-24T21:35:21.383Z,20.37
2019-01-24T21:37:50.103Z,20.73
2019-01-24T21:40:22.679Z,21.00
2019-01-24T21:42:51.339Z,21.40
2019-01-24T21:45:22.795Z,20.50
2019-01-24T21:47:51.376Z,20.57
2019-01-24T21:50:22.540Z,20.13
2019-01-24T21:52:51.128Z,20.63
2019-01-24T21:55:20.092Z,20.90
2019-01-24T21:57:49.413Z,19.97
2019-01-24T22:00:23.208Z,21.50
2019-01-24T22:02:52.147Z,22.07
2019-01-24T22:05:21.311Z,20.60
2019-01-24T22:07:49.984Z,20.33
2019-01-24T22:10:29.905Z,20.60
2019-01-24T22:12:58.727Z,20.77
2019-01-24T22:15:31.219Z,19.23
2019-01-24T22:18:00.051Z,20.10
2019-01-24T22:20:28.811Z,20.40
2019-01-24T22:22:57.490Z,21.03
2019-01-24T22:25:28.799Z,22.13
2019-01-24T22:27:57.388Z,21.57
2019-01-24T22:30:30.396Z,19.63
2019-01-24T22:32:58.979Z,21.57
2019-01-24T22:35:27.789Z,20.27
2019-01-24T22:37:56.448Z,20.00
2019-01-24T22:40:25.091Z,20.13
2019-01-24T22:42:53.684Z,20.80
2019-01-24T22:45:26.323Z,20.27
2019-01-24T22:47:54.938Z,19.90
2019-01-24T22:50:23.605Z,21.37
2019-01-24T22:52:52.353Z,20.20
2019-01-24T22:55:20.947Z,19.97
2019-01-24T22:57:49.571Z,21.00
2019-01-24T23:00:25.543Z,20.90
2019-01-24T23:02:54.183Z,20.17
2019-01-24T23:05:22.771Z,22.13
2019-01-24T23:07:51.395Z,20.73
2019-01-24T23:10:20.227Z,21.10
2019-01-24T23:12:49.011Z,21.93
2019-01-24T23:15:17.694Z,20.57
2019-01-24T23:17:46.319Z,20.50
2019-01-24T23:20:15.147Z,20.00
2019-01-24T23:22:43.778Z,22.13
2019-01-24T23:25:12.435Z,20.00
2019-01-24T23:27:41.127Z,20.90
2019-01-24T23:30:12.175Z,20.50
2019-01-24T23:32:40.811Z,21.27
2019-01-24T23:35:09.643Z,21.73
2019-01-24T23:37:38.260Z,21.13
2019-01-24T23:40:08.592Z,21.73
2019-01-24T23:42:37.226Z,20.07
2019-01-24T23:45:08.822Z,20.93
2019-01-24T23:47:37.447Z,22.07
2019-01-24T23:50:07.984Z,21.00
2019-01-24T23:52:36.688Z,21.37
2019-01-24T23:55:06.941Z,20.00
2019-01-24T23:57:35.547Z,20.33
